sensor_id;sensor_type;location;lat;lon;timestamp;P1;durP1;ratioP1;P2;durP2;ratioP2
29120;SDS011;16191;49.548;8.658;2024-02-26T00:01:04;2.13;;;1.33;;
29120;SDS011;16191;49.548;8.658;2024-02-26T00:03:31;2.42;;;1.20;;
29120;SDS011;16191;49.548;8.658;2024-02-26T00:06:00;2.05;;;1.23;;
29120;SDS011;16191;49.548;8.658;2024-02-26T00:08:26;1.70;;;1.00;;
29120;SDS011;16191;49.548;8.658;2024-02-26T00:10:53;2.47;;;1.20;;
29120;SDS011;16191;49.548;8.658;2024-02-26T00:13:20;3.03;;;1.48;;
29120;SDS011;16191;49.548;8.658;2024-02-26T00:15:48;1.75;;;1.20;;
29120;SDS011;16191;49.548;8.658;2024-02-26T00:18:15;1.48;;;1.00;;
29120;SDS011;16191;49.548;8.658;2024-02-26T00:20:42;4.55;;;1.10;;
29120;SDS011;16191;49.548;8.658;2024-02-26T00:23:09;3.13;;;1.10;;
29120;SDS011;16191;49.548;8.658;2024-02-26T00:25:36;1.75;;;1.10;;
29120;SDS011;16191;49.548;8.658;2024-02-26T00:28:04;1.30;;;1.05;;
29120;SDS011;16191;49.548;8.658;2024-02-26T00:30:31;3.28;;;1.25;;
29120;SDS011;16191;49.548;8.658;2024-02-26T00:32:58;2.67;;;1.35;;
29120;SDS011;16191;49.548;8.658;2024-02-26T00:35:25;2.45;;;1.30;;
29120;SDS011;16191;49.548;8.658;2024-02-26T00:37:52;3.70;;;1.02;;
29120;SDS011;16191;49.548;8.658;2024-02-26T00:40:19;3.72;;;1.33;;
29120;SDS011;16191;49.548;8.658;2024-02-26T00:42:46;1.92;;;1.08;;
29120;SDS011;16191;49.548;8.658;2024-02-26T00:45:14;1.73;;;1.20;;
29120;SDS011;16191;49.548;8.658;2024-02-26T00:47:42;2.75;;;1.17;;
29120;SDS011;16191;49.548;8.658;2024-02-26T00:50:11;2.10;;;1.10;;
29120;SDS011;16191;49.548;8.658;2024-02-26T00:52:37;1.60;;;1.00;;
29120;SDS011;16191;49.548;8.658;2024-02-26T00:55:04;2.08;;;1.10;;
29120;SDS011;16191;49.548;8.658;2024-02-26T00:57:33;2.45;;;1.10;;
29120;SDS011;16191;49.548;8.658;2024-02-26T01:00:00;1.15;;;1.00;;
29120;SDS011;16191;49.548;8.658;2024-02-26T01:02:27;1.17;;;1.08;;
29120;SDS011;16191;49.548;8.658;2024-02-26T01:04:54;2.78;;;1.23;;
29120;SDS011;16191;49.548;8.658;2024-02-26T01:07:20;2.08;;;1.30;;
29120;SDS011;16191;49.548;8.658;2024-02-26T01:09:47;1.33;;;0.85;;
29120;SDS011;16191;49.548;8.658;2024-02-26T01:12:14;1.40;;;0.95;;
29120;SDS011;16191;49.548;8.658;2024-02-26T01:14:42;1.42;;;1.00;;
29120;SDS011;16191;49.548;8.658;2024-02-26T01:17:09;1.55;;;1.00;;
29120;SDS011;16191;49.548;8.658;2024-02-26T01:19:36;2.13;;;1.13;;
29120;SDS011;16191;49.548;8.658;2024-02-26T01:22:02;2.03;;;0.90;;
29120;SDS011;16191;49.548;8.658;2024-02-26T01:24:29;0.68;;;0.68;;
29120;SDS011;16191;49.548;8.658;2024-02-26T01:26:56;1.90;;;0.95;;
29120;SDS011;16191;49.548;8.658;2024-02-26T01:29:22;1.88;;;0.93;;
29120;SDS011;16191;49.548;8.658;2024-02-26T01:31:49;2.13;;;1.05;;
29120;SDS011;16191;49.548;8.658;2024-02-26T01:34:16;1.58;;;1.13;;
29120;SDS011;16191;49.548;8.658;2024-02-26T01:36:44;2.30;;;1.30;;
29120;SDS011;16191;49.548;8.658;2024-02-26T01:39:11;1.67;;;1.00;;
29120;SDS011;16191;49.548;8.658;2024-02-26T01:41:39;2.22;;;0.90;;
29120;SDS011;16191;49.548;8.658;2024-02-26T01:44:06;2.17;;;1.15;;
29120;SDS011;16191;49.548;8.658;2024-02-26T01:46:34;1.10;;;1.00;;
29120;SDS011;16191;49.548;8.658;2024-02-26T01:49:02;1.08;;;0.82;;
29120;SDS011;16191;49.548;8.658;2024-02-26T01:51:30;1.48;;;1.00;;
29120;SDS011;16191;49.548;8.658;2024-02-26T01:53:58;2.63;;;1.02;;
29120;SDS011;16191;49.548;8.658;2024-02-26T01:56:27;3.88;;;0.93;;
29120;SDS011;16191;49.548;8.658;2024-02-26T01:58:58;1.45;;;0.90;;
29120;SDS011;16191;49.548;8.658;2024-02-26T02:01:25;1.20;;;1.00;;
29120;SDS011;16191;49.548;8.658;2024-02-26T02:03:56;1.33;;;0.95;;
29120;SDS011;16191;49.548;8.658;2024-02-26T02:06:24;1.90;;;1.35;;
29120;SDS011;16191;49.548;8.658;2024-02-26T02:08:56;3.25;;;0.90;;
29120;SDS011;16191;49.548;8.658;2024-02-26T02:11:23;1.55;;;0.98;;
29120;SDS011;16191;49.548;8.658;2024-02-26T02:13:50;4.40;;;1.10;;
29120;SDS011;16191;49.548;8.658;2024-02-26T02:16:16;1.00;;;0.80;;
29120;SDS011;16191;49.548;8.658;2024-02-26T02:18:43;1.58;;;1.05;;
29120;SDS011;16191;49.548;8.658;2024-02-26T02:21:10;1.50;;;0.88;;
29120;SDS011;16191;49.548;8.658;2024-02-26T02:23:37;3.42;;;1.10;;
29120;SDS011;16191;49.548;8.658;2024-02-26T02:26:05;1.50;;;1.02;;
29120;SDS011;16191;49.548;8.658;2024-02-26T02:28:33;1.90;;;1.20;;
29120;SDS011;16191;49.548;8.658;2024-02-26T02:30:59;1.50;;;0.93;;
29120;SDS011;16191;49.548;8.658;2024-02-26T02:33:27;1.35;;;1.00;;
29120;SDS011;16191;49.548;8.658;2024-02-26T02:35:54;2.95;;;1.10;;
29120;SDS011;16191;49.548;8.658;2024-02-26T02:38:22;2.00;;;0.88;;
29120;SDS011;16191;49.548;8.658;2024-02-26T02:40:50;1.85;;;1.00;;
29120;SDS011;16191;49.548;8.658;2024-02-26T02:43:17;1.17;;;1.02;;
29120;SDS011;16191;49.548;8.658;2024-02-26T02:45:43;1.13;;;0.80;;
29120;SDS011;16191;49.548;8.658;2024-02-26T02:48:30;1.17;;;0.68;;
29120;SDS011;16191;49.548;8.658;2024-02-26T02:51:17;1.98;;;0.80;;
29120;SDS011;16191;49.548;8.658;2024-02-26T02:54:04;1.27;;;0.70;;
29120;SDS011;16191;49.548;8.658;2024-02-26T02:56:51;1.50;;;0.95;;
29120;SDS011;16191;49.548;8.658;2024-02-26T02:59:38;1.10;;;0.82;;
29120;SDS011;16191;49.548;8.658;2024-02-26T03:02:25;1.15;;;0.70;;
29120;SDS011;16191;49.548;8.658;2024-02-26T03:04:52;2.08;;;0.90;;
29120;SDS011;16191;49.548;8.658;2024-02-26T03:07:19;3.53;;;1.10;;
29120;SDS011;16191;49.548;8.658;2024-02-26T03:09:46;3.50;;;1.40;;
29120;SDS011;16191;49.548;8.658;2024-02-26T03:12:12;1.10;;;0.80;;
29120;SDS011;16191;49.548;8.658;2024-02-26T03:14:39;1.08;;;0.90;;
29120;SDS011;16191;49.548;8.658;2024-02-26T03:17:06;2.72;;;1.00;;
29120;SDS011;16191;49.548;8.658;2024-02-26T03:19:33;1.83;;;1.15;;
29120;SDS011;16191;49.548;8.658;2024-02-26T03:22:00;4.18;;;1.38;;
29120;SDS011;16191;49.548;8.658;2024-02-26T03:24:26;1.65;;;1.30;;
29120;SDS011;16191;49.548;8.658;2024-02-26T03:26:53;2.00;;;1.20;;
29120;SDS011;16191;49.548;8.658;2024-02-26T03:29:20;3.83;;;1.17;;
29120;SDS011;16191;49.548;8.658;2024-02-26T03:31:46;2.95;;;1.10;;
29120;SDS011;16191;49.548;8.658;2024-02-26T03:34:13;2.50;;;1.00;;
29120;SDS011;16191;49.548;8.658;2024-02-26T03:36:41;0.70;;;0.70;;
29120;SDS011;16191;49.548;8.658;2024-02-26T03:39:11;1.63;;;0.90;;
29120;SDS011;16191;49.548;8.658;2024-02-26T03:41:38;2.15;;;1.00;;
29120;SDS011;16191;49.548;8.658;2024-02-26T03:44:04;1.63;;;0.90;;
29120;SDS011;16191;49.548;8.658;2024-02-26T03:46:31;4.03;;;0.80;;
29120;SDS011;16191;49.548;8.658;2024-02-26T03:48:58;1.40;;;0.98;;
29120;SDS011;16191;49.548;8.658;2024-02-26T03:51:25;1.00;;;0.82;;
29120;SDS011;16191;49.548;8.658;2024-02-26T03:53:53;2.40;;;0.95;;
29120;SDS011;16191;49.548;8.658;2024-02-26T03:56:19;1.50;;;0.98;;
29120;SDS011;16191;49.548;8.658;2024-02-26T03:58:47;2.53;;;0.90;;
29120;SDS011;16191;49.548;8.658;2024-02-26T04:01:13;3.40;;;1.20;;
29120;SDS011;16191;49.548;8.658;2024-02-26T04:03:40;1.77;;;1.10;;
29120;SDS011;16191;49.548;8.658;2024-02-26T04:06:08;3.10;;;1.50;;
29120;SDS011;16191;49.548;8.658;2024-02-26T04:08:36;3.90;;;1.15;;
29120;SDS011;16191;49.548;8.658;2024-02-26T04:11:03;2.63;;;1.15;;
29120;SDS011;16191;49.548;8.658;2024-02-26T04:13:34;3.03;;;1.00;;
29120;SDS011;16191;49.548;8.658;2024-02-26T04:16:01;2.22;;;1.23;;
29120;SDS011;16191;49.548;8.658;2024-02-26T04:18:28;3.67;;;1.05;;
29120;SDS011;16191;49.548;8.658;2024-02-26T04:20:55;2.22;;;1.27;;
29120;SDS011;16191;49.548;8.658;2024-02-26T04:23:23;2.13;;;1.00;;
29120;SDS011;16191;49.548;8.658;2024-02-26T04:25:50;4.65;;;1.52;;
29120;SDS011;16191;49.548;8.658;2024-02-26T04:28:19;1.48;;;1.00;;
29120;SDS011;16191;49.548;8.658;2024-02-26T04:30:52;1.63;;;1.05;;
29120;SDS011;16191;49.548;8.658;2024-02-26T04:33:19;1.33;;;1.05;;
29120;SDS011;16191;49.548;8.658;2024-02-26T04:35:45;4.40;;;1.05;;
29120;SDS011;16191;49.548;8.658;2024-02-26T04:38:12;1.45;;;1.10;;
29120;SDS011;16191;49.548;8.658;2024-02-26T04:40:39;1.20;;;1.00;;
29120;SDS011;16191;49.548;8.658;2024-02-26T04:43:06;1.63;;;1.00;;
29120;SDS011;16191;49.548;8.658;2024-02-26T04:45:33;0.98;;;0.90;;
29120;SDS011;16191;49.548;8.658;2024-02-26T04:47:59;2.80;;;1.10;;
29120;SDS011;16191;49.548;8.658;2024-02-26T04:50:27;1.27;;;0.80;;
29120;SDS011;16191;49.548;8.658;2024-02-26T04:52:54;3.10;;;1.17;;
29120;SDS011;16191;49.548;8.658;2024-02-26T04:55:21;1.85;;;1.13;;
29120;SDS011;16191;49.548;8.658;2024-02-26T04:57:48;2.90;;;0.93;;
29120;SDS011;16191;49.548;8.658;2024-02-26T05:00:14;1.15;;;0.90;;
29120;SDS011;16191;49.548;8.658;2024-02-26T05:02:41;4.40;;;1.00;;
29120;SDS011;16191;49.548;8.658;2024-02-26T05:05:08;1.70;;;0.93;;
29120;SDS011;16191;49.548;8.658;2024-02-26T05:07:41;1.25;;;0.80;;
29120;SDS011;16191;49.548;8.658;2024-02-26T05:10:10;2.35;;;0.93;;
29120;SDS011;16191;49.548;8.658;2024-02-26T05:12:37;2.42;;;0.80;;
29120;SDS011;16191;49.548;8.658;2024-02-26T05:15:03;1.38;;;0.88;;
29120;SDS011;16191;49.548;8.658;2024-02-26T05:17:31;1.08;;;0.80;;
29120;SDS011;16191;49.548;8.658;2024-02-26T05:19:58;1.00;;;0.90;;
29120;SDS011;16191;49.548;8.658;2024-02-26T05:22:25;1.67;;;0.85;;
29120;SDS011;16191;49.548;8.658;2024-02-26T05:24:52;0.77;;;0.57;;
29120;SDS011;16191;49.548;8.658;2024-02-26T05:27:18;1.65;;;1.00;;
29120;SDS011;16191;49.548;8.658;2024-02-26T05:29:45;0.75;;;0.75;;
29120;SDS011;16191;49.548;8.658;2024-02-26T05:32:12;1.98;;;1.00;;
29120;SDS011;16191;49.548;8.658;2024-02-26T05:34:38;0.88;;;0.85;;
29120;SDS011;16191;49.548;8.658;2024-02-26T05:37:06;0.90;;;0.70;;
29120;SDS011;16191;49.548;8.658;2024-02-26T05:39:34;1.77;;;1.10;;
29120;SDS011;16191;49.548;8.658;2024-02-26T05:42:00;2.20;;;0.70;;
29120;SDS011;16191;49.548;8.658;2024-02-26T05:44:27;1.15;;;0.80;;
29120;SDS011;16191;49.548;8.658;2024-02-26T05:46:54;1.50;;;1.00;;
29120;SDS011;16191;49.548;8.658;2024-02-26T05:49:21;1.38;;;0.80;;
29120;SDS011;16191;49.548;8.658;2024-02-26T05:51:49;0.80;;;0.80;;
29120;SDS011;16191;49.548;8.658;2024-02-26T05:54:15;1.38;;;0.80;;
29120;SDS011;16191;49.548;8.658;2024-02-26T05:56:42;0.88;;;0.77;;
29120;SDS011;16191;49.548;8.658;2024-02-26T05:59:09;1.63;;;0.90;;
29120;SDS011;16191;49.548;8.658;2024-02-26T06:01:36;3.05;;;0.80;;
29120;SDS011;16191;49.548;8.658;2024-02-26T06:04:02;0.60;;;0.60;;
29120;SDS011;16191;49.548;8.658;2024-02-26T06:06:29;1.63;;;1.00;;
29120;SDS011;16191;49.548;8.658;2024-02-26T06:08:56;1.48;;;1.00;;
29120;SDS011;16191;49.548;8.658;2024-02-26T06:11:22;0.80;;;0.80;;
29120;SDS011;16191;49.548;8.658;2024-02-26T06:13:49;1.60;;;0.82;;
29120;SDS011;16191;49.548;8.658;2024-02-26T06:16:16;2.35;;;1.17;;
29120;SDS011;16191;49.548;8.658;2024-02-26T06:18:43;1.60;;;0.90;;
29120;SDS011;16191;49.548;8.658;2024-02-26T06:21:11;1.90;;;1.20;;
29120;SDS011;16191;49.548;8.658;2024-02-26T06:23:38;2.60;;;1.20;;
29120;SDS011;16191;49.548;8.658;2024-02-26T06:26:05;2.17;;;1.20;;
29120;SDS011;16191;49.548;8.658;2024-02-26T06:28:32;1.88;;;0.93;;
29120;SDS011;16191;49.548;8.658;2024-02-26T06:31:00;1.65;;;0.90;;
29120;SDS011;16191;49.548;8.658;2024-02-26T06:33:26;1.13;;;0.90;;
29120;SDS011;16191;49.548;8.658;2024-02-26T06:35:54;1.65;;;0.90;;
29120;SDS011;16191;49.548;8.658;2024-02-26T06:38:20;0.93;;;0.93;;
29120;SDS011;16191;49.548;8.658;2024-02-26T06:40:48;2.20;;;0.93;;
29120;SDS011;16191;49.548;8.658;2024-02-26T06:43:15;1.77;;;1.00;;
29120;SDS011;16191;49.548;8.658;2024-02-26T06:45:41;1.77;;;0.98;;
29120;SDS011;16191;49.548;8.658;2024-02-26T06:48:08;2.63;;;0.90;;
29120;SDS011;16191;49.548;8.658;2024-02-26T06:50:35;1.77;;;0.90;;
29120;SDS011;16191;49.548;8.658;2024-02-26T06:53:02;1.25;;;0.90;;
29120;SDS011;16191;49.548;8.658;2024-02-26T06:55:28;1.63;;;1.00;;
29120;SDS011;16191;49.548;8.658;2024-02-26T06:57:56;1.30;;;0.98;;
29120;SDS011;16191;49.548;8.658;2024-02-26T07:00:23;0.88;;;0.88;;
29120;SDS011;16191;49.548;8.658;2024-02-26T07:02:50;2.47;;;0.90;;
29120;SDS011;16191;49.548;8.658;2024-02-26T07:05:16;0.80;;;0.80;;
29120;SDS011;16191;49.548;8.658;2024-02-26T07:07:44;4.68;;;1.15;;
29120;SDS011;16191;49.548;8.658;2024-02-26T07:10:10;1.58;;;1.00;;
29120;SDS011;16191;49.548;8.658;2024-02-26T07:12:39;1.02;;;0.90;;
29120;SDS011;16191;49.548;8.658;2024-02-26T07:15:06;1.73;;;0.95;;
29120;SDS011;16191;49.548;8.658;2024-02-26T07:17:34;2.08;;;1.23;;
29120;SDS011;16191;49.548;8.658;2024-02-26T07:20:02;2.15;;;1.02;;
29120;SDS011;16191;49.548;8.658;2024-02-26T07:22:35;1.00;;;0.80;;
29120;SDS011;16191;49.548;8.658;2024-02-26T07:25:03;3.08;;;1.17;;
29120;SDS011;16191;49.548;8.658;2024-02-26T07:27:30;1.48;;;0.95;;
29120;SDS011;16191;49.548;8.658;2024-02-26T07:29:57;1.20;;;0.98;;
29120;SDS011;16191;49.548;8.658;2024-02-26T07:32:23;1.48;;;1.05;;
29120;SDS011;16191;49.548;8.658;2024-02-26T07:34:50;2.30;;;0.90;;
29120;SDS011;16191;49.548;8.658;2024-02-26T07:37:17;1.58;;;0.93;;
29120;SDS011;16191;49.548;8.658;2024-02-26T07:39:44;2.00;;;1.00;;
29120;SDS011;16191;49.548;8.658;2024-02-26T07:42:11;1.85;;;1.05;;
29120;SDS011;16191;49.548;8.658;2024-02-26T07:44:37;1.65;;;1.00;;
29120;SDS011;16191;49.548;8.658;2024-02-26T07:47:05;1.65;;;1.17;;
29120;SDS011;16191;49.548;8.658;2024-02-26T07:49:32;1.42;;;0.88;;
29120;SDS011;16191;49.548;8.658;2024-02-26T07:52:03;0.70;;;0.70;;
29120;SDS011;16191;49.548;8.658;2024-02-26T07:54:30;2.42;;;1.40;;
29120;SDS011;16191;49.548;8.658;2024-02-26T07:56:57;2.42;;;1.40;;
29120;SDS011;16191;49.548;8.658;2024-02-26T07:59:24;1.08;;;0.80;;
29120;SDS011;16191;49.548;8.658;2024-02-26T08:01:50;1.25;;;1.00;;
29120;SDS011;16191;49.548;8.658;2024-02-26T08:04:22;2.05;;;1.15;;
29120;SDS011;16191;49.548;8.658;2024-02-26T08:06:49;1.05;;;0.98;;
29120;SDS011;16191;49.548;8.658;2024-02-26T08:09:16;1.30;;;1.00;;
29120;SDS011;16191;49.548;8.658;2024-02-26T08:11:43;1.42;;;1.08;;
29120;SDS011;16191;49.548;8.658;2024-02-26T08:14:10;1.60;;;1.20;;
29120;SDS011;16191;49.548;8.658;2024-02-26T08:16:36;1.50;;;1.00;;
29120;SDS011;16191;49.548;8.658;2024-02-26T08:19:03;1.70;;;1.13;;
29120;SDS011;16191;49.548;8.658;2024-02-26T08:21:30;1.77;;;1.20;;
29120;SDS011;16191;49.548;8.658;2024-02-26T08:23:57;2.17;;;1.50;;
29120;SDS011;16191;49.548;8.658;2024-02-26T08:26:24;3.25;;;1.40;;
29120;SDS011;16191;49.548;8.658;2024-02-26T08:28:50;2.08;;;1.52;;
29120;SDS011;16191;49.548;8.658;2024-02-26T08:31:17;2.03;;;1.30;;
29120;SDS011;16191;49.548;8.658;2024-02-26T08:33:44;1.67;;;1.20;;
29120;SDS011;16191;49.548;8.658;2024-02-26T08:36:11;2.45;;;1.25;;
29120;SDS011;16191;49.548;8.658;2024-02-26T08:38:38;2.05;;;1.40;;
29120;SDS011;16191;49.548;8.658;2024-02-26T08:41:05;2.20;;;1.02;;
29120;SDS011;16191;49.548;8.658;2024-02-26T08:43:32;1.98;;;1.20;;
29120;SDS011;16191;49.548;8.658;2024-02-26T08:45:58;1.50;;;0.95;;
29120;SDS011;16191;49.548;8.658;2024-02-26T08:48:25;1.10;;;0.90;;
29120;SDS011;16191;49.548;8.658;2024-02-26T08:51:12;2.63;;;1.00;;
29120;SDS011;16191;49.548;8.658;2024-02-26T08:53:39;1.67;;;0.80;;
29120;SDS011;16191;49.548;8.658;2024-02-26T08:56:09;1.90;;;1.20;;
29120;SDS011;16191;49.548;8.658;2024-02-26T08:58:43;1.00;;;0.90;;
29120;SDS011;16191;49.548;8.658;2024-02-26T09:01:10;1.23;;;0.80;;
29120;SDS011;16191;49.548;8.658;2024-02-26T09:03:37;1.52;;;0.82;;
29120;SDS011;16191;49.548;8.658;2024-02-26T09:06:04;3.45;;;0.90;;
29120;SDS011;16191;49.548;8.658;2024-02-26T09:08:33;2.10;;;1.10;;
29120;SDS011;16191;49.548;8.658;2024-02-26T09:11:00;1.52;;;0.90;;
29120;SDS011;16191;49.548;8.658;2024-02-26T09:13:26;0.80;;;0.80;;
29120;SDS011;16191;49.548;8.658;2024-02-26T09:15:53;2.70;;;1.08;;
29120;SDS011;16191;49.548;8.658;2024-02-26T09:18:21;4.40;;;0.80;;
29120;SDS011;16191;49.548;8.658;2024-02-26T09:20:47;1.48;;;0.90;;
29120;SDS011;16191;49.548;8.658;2024-02-26T09:23:14;1.33;;;0.85;;
29120;SDS011;16191;49.548;8.658;2024-02-26T09:25:41;2.85;;;0.88;;
29120;SDS011;16191;49.548;8.658;2024-02-26T09:28:08;2.20;;;0.70;;
29120;SDS011;16191;49.548;8.658;2024-02-26T09:30:35;4.13;;;0.82;;
29120;SDS011;16191;49.548;8.658;2024-02-26T09:33:02;0.70;;;0.70;;
29120;SDS011;16191;49.548;8.658;2024-02-26T09:35:29;2.22;;;1.02;;
29120;SDS011;16191;49.548;8.658;2024-02-26T09:37:56;1.08;;;0.85;;
29120;SDS011;16191;49.548;8.658;2024-02-26T09:40:23;1.27;;;0.80;;
29120;SDS011;16191;49.548;8.658;2024-02-26T09:42:51;1.15;;;0.85;;
29120;SDS011;16191;49.548;8.658;2024-02-26T09:45:25;0.95;;;0.88;;
29120;SDS011;16191;49.548;8.658;2024-02-26T09:47:55;0.80;;;0.77;;
29120;SDS011;16191;49.548;8.658;2024-02-26T09:50:22;1.48;;;0.85;;
29120;SDS011;16191;49.548;8.658;2024-02-26T09:52:50;2.70;;;1.10;;
29120;SDS011;16191;49.548;8.658;2024-02-26T09:55:18;1.23;;;0.73;;
29120;SDS011;16191;49.548;8.658;2024-02-26T09:57:46;0.80;;;0.80;;
29120;SDS011;16191;49.548;8.658;2024-02-26T10:00:18;0.77;;;0.70;;
29120;SDS011;16191;49.548;8.658;2024-02-26T10:02:47;3.13;;;0.80;;
29120;SDS011;16191;49.548;8.658;2024-02-26T10:05:14;1.23;;;1.00;;
29120;SDS011;16191;49.548;8.658;2024-02-26T10:07:44;0.70;;;0.70;;
29120;SDS011;16191;49.548;8.658;2024-02-26T10:10:13;3.78;;;0.88;;
29120;SDS011;16191;49.548;8.658;2024-02-26T10:12:41;1.35;;;1.10;;
29120;SDS011;16191;49.548;8.658;2024-02-26T10:15:08;2.50;;;1.20;;
29120;SDS011;16191;49.548;8.658;2024-02-26T10:17:35;1.20;;;1.02;;
29120;SDS011;16191;49.548;8.658;2024-02-26T10:20:16;1.38;;;1.00;;
29120;SDS011;16191;49.548;8.658;2024-02-26T10:22:45;1.02;;;0.73;;
29120;SDS011;16191;49.548;8.658;2024-02-26T10:25:11;4.00;;;1.50;;
29120;SDS011;16191;49.548;8.658;2024-02-26T10:27:40;1.77;;;0.90;;
29120;SDS011;16191;49.548;8.658;2024-02-26T10:30:17;1.27;;;0.80;;
29120;SDS011;16191;49.548;8.658;2024-02-26T10:32:45;0.85;;;0.70;;
29120;SDS011;16191;49.548;8.658;2024-02-26T10:35:33;0.75;;;0.70;;
29120;SDS011;16191;49.548;8.658;2024-02-26T10:38:25;1.15;;;0.80;;
29120;SDS011;16191;49.548;8.658;2024-02-26T10:40:52;1.00;;;0.88;;
29120;SDS011;16191;49.548;8.658;2024-02-26T10:43:19;1.63;;;0.85;;
29120;SDS011;16191;49.548;8.658;2024-02-26T10:45:45;1.55;;;0.98;;
29120;SDS011;16191;49.548;8.658;2024-02-26T10:48:14;1.00;;;0.88;;
29120;SDS011;16191;49.548;8.658;2024-02-26T10:50:41;1.50;;;1.00;;
29120;SDS011;16191;49.548;8.658;2024-02-26T10:53:12;0.80;;;0.70;;
29120;SDS011;16191;49.548;8.658;2024-02-26T10:55:45;0.82;;;0.70;;
29120;SDS011;16191;49.548;8.658;2024-02-26T10:58:15;1.85;;;0.77;;
29120;SDS011;16191;49.548;8.658;2024-02-26T11:00:43;1.17;;;0.70;;
29120;SDS011;16191;49.548;8.658;2024-02-26T11:03:10;2.05;;;0.73;;
29120;SDS011;16191;49.548;8.658;2024-02-26T11:05:38;2.17;;;0.90;;
29120;SDS011;16191;49.548;8.658;2024-02-26T11:08:07;1.40;;;0.60;;
29120;SDS011;16191;49.548;8.658;2024-02-26T11:10:34;1.70;;;0.85;;
29120;SDS011;16191;49.548;8.658;2024-02-26T11:13:02;0.60;;;0.60;;
29120;SDS011;16191;49.548;8.658;2024-02-26T11:15:31;0.60;;;0.60;;
29120;SDS011;16191;49.548;8.658;2024-02-26T11:18:00;2.00;;;0.70;;
29120;SDS011;16191;49.548;8.658;2024-02-26T11:20:28;0.85;;;0.50;;
29120;SDS011;16191;49.548;8.658;2024-02-26T11:22:56;0.85;;;0.60;;
29120;SDS011;16191;49.548;8.658;2024-02-26T11:25:22;1.83;;;0.85;;
29120;SDS011;16191;49.548;8.658;2024-02-26T11:27:51;0.98;;;0.65;;
29120;SDS011;16191;49.548;8.658;2024-02-26T11:30:24;1.23;;;0.80;;
29120;SDS011;16191;49.548;8.658;2024-02-26T11:32:52;1.40;;;0.80;;
29120;SDS011;16191;49.548;8.658;2024-02-26T11:35:19;0.85;;;0.70;;
29120;SDS011;16191;49.548;8.658;2024-02-26T11:37:56;0.85;;;0.60;;
29120;SDS011;16191;49.548;8.658;2024-02-26T11:40:24;0.60;;;0.60;;
29120;SDS011;16191;49.548;8.658;2024-02-26T11:42:52;0.98;;;0.70;;
29120;SDS011;16191;49.548;8.658;2024-02-26T11:48:17;0.93;;;0.50;;
29120;SDS011;16191;49.548;8.658;2024-02-26T11:50:49;1.02;;;0.57;;
29120;SDS011;16191;49.548;8.658;2024-02-26T11:53:21;0.60;;;0.60;;
29120;SDS011;16191;49.548;8.658;2024-02-26T11:59:03;1.30;;;0.43;;
29120;SDS011;16191;49.548;8.658;2024-02-26T12:01:45;0.95;;;0.50;;
29120;SDS011;16191;49.548;8.658;2024-02-26T12:04:19;0.43;;;0.43;;
29120;SDS011;16191;49.548;8.658;2024-02-26T12:07:00;0.50;;;0.50;;
29120;SDS011;16191;49.548;8.658;2024-02-26T12:09:32;0.38;;;0.38;;
29120;SDS011;16191;49.548;8.658;2024-02-26T12:12:04;0.93;;;0.65;;
29120;SDS011;16191;49.548;8.658;2024-02-26T12:14:55;1.45;;;0.50;;
29120;SDS011;16191;49.548;8.658;2024-02-26T12:17:22;0.73;;;0.45;;
29120;SDS011;16191;49.548;8.658;2024-02-26T12:19:50;0.50;;;0.50;;
29120;SDS011;16191;49.548;8.658;2024-02-26T12:22:19;0.90;;;0.70;;
29120;SDS011;16191;49.548;8.658;2024-02-26T12:24:46;0.90;;;0.70;;
29120;SDS011;16191;49.548;8.658;2024-02-26T12:27:13;1.83;;;0.60;;
29120;SDS011;16191;49.548;8.658;2024-02-26T12:29:41;1.63;;;0.63;;
29120;SDS011;16191;49.548;8.658;2024-02-26T12:32:08;1.83;;;0.75;;
29120;SDS011;16191;49.548;8.658;2024-02-26T12:34:36;0.70;;;0.70;;
29120;SDS011;16191;49.548;8.658;2024-02-26T12:37:03;2.05;;;0.60;;
29120;SDS011;16191;49.548;8.658;2024-02-26T12:39:31;1.48;;;0.68;;
29120;SDS011;16191;49.548;8.658;2024-02-26T12:41:58;1.00;;;0.65;;
29120;SDS011;16191;49.548;8.658;2024-02-26T12:44:26;1.60;;;0.60;;
29120;SDS011;16191;49.548;8.658;2024-02-26T12:47:00;0.73;;;0.57;;
29120;SDS011;16191;49.548;8.658;2024-02-26T12:49:29;1.33;;;0.70;;
29120;SDS011;16191;49.548;8.658;2024-02-26T12:51:58;1.58;;;0.85;;
29120;SDS011;16191;49.548;8.658;2024-02-26T12:54:29;1.45;;;0.70;;
29120;SDS011;16191;49.548;8.658;2024-02-26T12:59:27;0.50;;;0.50;;
29120;SDS011;16191;49.548;8.658;2024-02-26T13:01:54;0.82;;;0.80;;
29120;SDS011;16191;49.548;8.658;2024-02-26T13:04:21;0.73;;;0.63;;
29120;SDS011;16191;49.548;8.658;2024-02-26T13:06:48;0.80;;;0.68;;
29120;SDS011;16191;49.548;8.658;2024-02-26T13:09:15;1.13;;;0.70;;
29120;SDS011;16191;49.548;8.658;2024-02-26T13:11:42;0.77;;;0.60;;
29120;SDS011;16191;49.548;8.658;2024-02-26T13:14:18;1.33;;;0.60;;
29120;SDS011;16191;49.548;8.658;2024-02-26T13:16:54;0.80;;;0.50;;
29120;SDS011;16191;49.548;8.658;2024-02-26T13:19:25;0.57;;;0.40;;
29120;SDS011;16191;49.548;8.658;2024-02-26T13:21:52;0.98;;;0.85;;
29120;SDS011;16191;49.548;8.658;2024-02-26T13:24:19;0.50;;;0.50;;
29120;SDS011;16191;49.548;8.658;2024-02-26T13:26:47;2.72;;;0.40;;
29120;SDS011;16191;49.548;8.658;2024-02-26T13:29:17;2.55;;;0.75;;
29120;SDS011;16191;49.548;8.658;2024-02-26T13:31:44;2.58;;;1.23;;
29120;SDS011;16191;49.548;8.658;2024-02-26T13:34:25;0.80;;;0.75;;
29120;SDS011;16191;49.548;8.658;2024-02-26T13:36:54;0.85;;;0.60;;
29120;SDS011;16191;49.548;8.658;2024-02-26T13:39:24;0.65;;;0.47;;
29120;SDS011;16191;49.548;8.658;2024-02-26T13:41:53;0.73;;;0.50;;
29120;SDS011;16191;49.548;8.658;2024-02-26T13:44:21;0.43;;;0.40;;
29120;SDS011;16191;49.548;8.658;2024-02-26T13:46:48;1.10;;;0.57;;
29120;SDS011;16191;49.548;8.658;2024-02-26T13:49:18;0.73;;;0.55;;
29120;SDS011;16191;49.548;8.658;2024-02-26T13:51:45;0.63;;;0.60;;
29120;SDS011;16191;49.548;8.658;2024-02-26T13:54:12;1.00;;;0.50;;
29120;SDS011;16191;49.548;8.658;2024-02-26T13:56:41;0.80;;;0.40;;
29120;SDS011;16191;49.548;8.658;2024-02-26T14:01:38;0.63;;;0.40;;
29120;SDS011;16191;49.548;8.658;2024-02-26T14:04:05;0.30;;;0.30;;
29120;SDS011;16191;49.548;8.658;2024-02-26T14:06:33;0.57;;;0.30;;
29120;SDS011;16191;49.548;8.658;2024-02-26T14:09:00;0.95;;;0.50;;
29120;SDS011;16191;49.548;8.658;2024-02-26T14:11:27;0.45;;;0.45;;
29120;SDS011;16191;49.548;8.658;2024-02-26T14:13:55;0.70;;;0.50;;
29120;SDS011;16191;49.548;8.658;2024-02-26T14:16:22;0.45;;;0.35;;
29120;SDS011;16191;49.548;8.658;2024-02-26T14:18:49;0.85;;;0.60;;
29120;SDS011;16191;49.548;8.658;2024-02-26T14:21:16;0.35;;;0.30;;
29120;SDS011;16191;49.548;8.658;2024-02-26T14:23:43;0.38;;;0.30;;
29120;SDS011;16191;49.548;8.658;2024-02-26T14:26:11;0.40;;;0.40;;
29120;SDS011;16191;49.548;8.658;2024-02-26T14:28:38;0.68;;;0.50;;
29120;SDS011;16191;49.548;8.658;2024-02-26T14:31:05;0.30;;;0.30;;
29120;SDS011;16191;49.548;8.658;2024-02-26T14:33:38;0.30;;;0.30;;
29120;SDS011;16191;49.548;8.658;2024-02-26T14:36:08;0.50;;;0.50;;
29120;SDS011;16191;49.548;8.658;2024-02-26T14:38:36;0.90;;;0.40;;
29120;SDS011;16191;49.548;8.658;2024-02-26T14:41:03;2.25;;;0.40;;
29120;SDS011;16191;49.548;8.658;2024-02-26T14:43:30;0.50;;;0.50;;
29120;SDS011;16191;49.548;8.658;2024-02-26T14:45:58;2.03;;;0.60;;
29120;SDS011;16191;49.548;8.658;2024-02-26T14:48:28;1.03;;;0.60;;
29120;SDS011;16191;49.548;8.658;2024-02-26T14:50:56;0.50;;;0.50;;
29120;SDS011;16191;49.548;8.658;2024-02-26T14:53:22;1.00;;;0.60;;
29120;SDS011;16191;49.548;8.658;2024-02-26T14:55:49;0.88;;;0.50;;
29120;SDS011;16191;49.548;8.658;2024-02-26T14:58:16;1.73;;;0.70;;
29120;SDS011;16191;49.548;8.658;2024-02-26T15:00:43;1.05;;;0.70;;
29120;SDS011;16191;49.548;8.658;2024-02-26T15:03:10;0.80;;;0.55;;
29120;SDS011;16191;49.548;8.658;2024-02-26T15:05:37;0.80;;;0.57;;